Terminal Aerodrome Forecast
Issued by NWS Albany, NY

Home | Current Version | Previous Version | Text Only | Print | Product List | Glossary On
Versions: 1 2 3 4 5 6 7 8 9 10 11 12 13 14 15 16 17
498
FTUS41 KALY 262328
TAFGFL
TAF
KGFL 262328Z 2700/2724 VRB03KT P6SM FEW040 BKN070
     FM270400 00000KT P6SM BCFG FEW003 SCT040
      TEMPO 2706/2710 2SM BR BKN003
     FM271200 18004KT P6SM SKC=

USA.gov is the U.S. government's official web portal to all federal, state and local government web resources and services.